This is the latest recevied weather packets stored in our database for station/object EA1JAO-11. If no packets are shown the sender has not sent any weather packets the latest 10 day(s).
| Time | Temp. | Humidity | Pressure | Rain* | Wind** | Luminosity | Snow |
|---|---|---|---|---|---|---|---|
| 1777746986 | 15.56° C | 83% | 1013.2 hPa | - | - | - | - |
| 1777745185 | 17.22° C | 72% | 1013 hPa | - | - | - | - |
| 1777743384 | 18.33° C | 67% | 1013 hPa | - | - | - | - |
| 1777741586 | 18.33° C | 67% | 1013.2 hPa | - | - | - | - |
| 1777739784 | 19.44° C | 64% | 1013 hPa | - | - | - | - |
| 1777737984 | 20.56° C | 59% | 1012.8 hPa | - | - | - | - |
| 1777736184 | 18.89° C | 63% | 1013.2 hPa | - | - | - | - |
| 1777734384 | 18.89° C | 62% | 1013.2 hPa | - | - | - | - |
| 1777732584 | 22.22° C | 54% | 1013.2 hPa | - | - | - | - |
| 1777730784 | 21.67° C | 53% | 1013.5 hPa | - | - | - | - |
| 1777728984 | 23.33° C | 46% | 1013.6 hPa | - | - | - | - |
| 1777727184 | 22.78° C | 50% | 1013.5 hPa | - | - | - | - |
| 1777725384 | 21.67° C | 58% | 1013.6 hPa | - | - | - | - |
| 1777723583 | 21.11° C | 59% | 1013.8 hPa | - | - | - | - |
| 1777721783 | 22.22° C | 51% | 1014 hPa | - | - | - | - |
| 1777719983 | 20.56° C | 59% | 1014.5 hPa | - | - | - | - |
| 1777718183 | 20.56° C | 59% | 1014.9 hPa | - | - | - | - |
| 1777716383 | 19.44° C | 62% | 1015 hPa | - | - | - | - |
| 1777714583 | 19.44° C | 64% | 1015 hPa | - | - | - | - |
| 1777712783 | 20.56° C | 66% | 1015 hPa | - | - | - | - |
| 1777710983 | 20° C | 75% | 1015.1 hPa | - | - | - | - |
| 1777709183 | 18.89° C | 85% | 1015.1 hPa | - | - | - | - |
| 1777705583 | 16.11° C | 95% | 1015.4 hPa | - | - | - | - |
| 1777703785 | 15.56° C | 97% | 1015.4 hPa | - | - | - | - |
| 1777701980 | 13.33° C | 99% | 1015.5 hPa | - | - | - | - |
* Rain since midnight (hover to see other rain measurements)
** Current wind speed in m/s (hover to see current wind gust speed)